sensor_id;sensor_type;location;lat;lon;timestamp;P1;durP1;ratioP1;P2;durP2;ratioP2
9306;SDS011;4691;47.612;7.610;2023-06-10T00:02:15;15.07;;;10.57;;
9306;SDS011;4691;47.612;7.610;2023-06-10T00:04:42;15.50;;;10.52;;
9306;SDS011;4691;47.612;7.610;2023-06-10T00:07:07;15.32;;;10.23;;
9306;SDS011;4691;47.612;7.610;2023-06-10T00:09:36;17.02;;;10.68;;
9306;SDS011;4691;47.612;7.610;2023-06-10T00:12:03;16.27;;;10.05;;
9306;SDS011;4691;47.612;7.610;2023-06-10T00:14:31;16.50;;;10.82;;
9306;SDS011;4691;47.612;7.610;2023-06-10T00:16:57;19.73;;;10.55;;
9306;SDS011;4691;47.612;7.610;2023-06-10T00:19:22;12.75;;;9.98;;
9306;SDS011;4691;47.612;7.610;2023-06-10T00:21:50;13.50;;;9.98;;
9306;SDS011;4691;47.612;7.610;2023-06-10T00:24:17;12.98;;;9.57;;
9306;SDS011;4691;47.612;7.610;2023-06-10T00:26:43;14.52;;;9.52;;
9306;SDS011;4691;47.612;7.610;2023-06-10T00:29:08;15.60;;;9.93;;
9306;SDS011;4691;47.612;7.610;2023-06-10T00:31:34;15.15;;;10.32;;
9306;SDS011;4691;47.612;7.610;2023-06-10T00:34:00;14.65;;;10.23;;
9306;SDS011;4691;47.612;7.610;2023-06-10T00:36:27;14.38;;;9.88;;
9306;SDS011;4691;47.612;7.610;2023-06-10T00:38:52;12.48;;;9.82;;
9306;SDS011;4691;47.612;7.610;2023-06-10T00:41:17;19.13;;;10.48;;
9306;SDS011;4691;47.612;7.610;2023-06-10T00:43:43;14.85;;;9.75;;
9306;SDS011;4691;47.612;7.610;2023-06-10T00:46:09;13.85;;;10.05;;
9306;SDS011;4691;47.612;7.610;2023-06-10T00:48:36;14.88;;;10.15;;
9306;SDS011;4691;47.612;7.610;2023-06-10T00:51:03;16.40;;;10.63;;
9306;SDS011;4691;47.612;7.610;2023-06-10T00:53:30;16.95;;;11.13;;
9306;SDS011;4691;47.612;7.610;2023-06-10T00:55:57;14.77;;;10.15;;
9306;SDS011;4691;47.612;7.610;2023-06-10T00:58:24;13.10;;;10.13;;
9306;SDS011;4691;47.612;7.610;2023-06-10T01:00:50;15.07;;;10.15;;
9306;SDS011;4691;47.612;7.610;2023-06-10T01:03:16;15.48;;;10.40;;
9306;SDS011;4691;47.612;7.610;2023-06-10T01:05:42;15.52;;;10.60;;
9306;SDS011;4691;47.612;7.610;2023-06-10T01:11:19;16.52;;;10.23;;
9306;SDS011;4691;47.612;7.610;2023-06-10T01:13:49;14.82;;;10.23;;
9306;SDS011;4691;47.612;7.610;2023-06-10T01:16:16;14.85;;;10.32;;
9306;SDS011;4691;47.612;7.610;2023-06-10T01:18:43;18.85;;;10.15;;
9306;SDS011;4691;47.612;7.610;2023-06-10T01:21:12;13.68;;;10.23;;
9306;SDS011;4691;47.612;7.610;2023-06-10T01:23:38;22.52;;;10.45;;
9306;SDS011;4691;47.612;7.610;2023-06-10T01:26:05;16.65;;;9.77;;
9306;SDS011;4691;47.612;7.610;2023-06-10T01:28:40;14.88;;;10.35;;
9306;SDS011;4691;47.612;7.610;2023-06-10T01:31:21;16.48;;;10.25;;
9306;SDS011;4691;47.612;7.610;2023-06-10T01:33:59;17.08;;;10.65;;
9306;SDS011;4691;47.612;7.610;2023-06-10T01:36:25;14.10;;;10.63;;
9306;SDS011;4691;47.612;7.610;2023-06-10T01:38:51;13.30;;;9.75;;
9306;SDS011;4691;47.612;7.610;2023-06-10T01:41:18;16.67;;;10.70;;
9306;SDS011;4691;47.612;7.610;2023-06-10T01:43:46;19.33;;;10.95;;
9306;SDS011;4691;47.612;7.610;2023-06-10T01:46:12;19.30;;;10.90;;
9306;SDS011;4691;47.612;7.610;2023-06-10T01:48:38;17.35;;;10.70;;
9306;SDS011;4691;47.612;7.610;2023-06-10T01:51:04;20.23;;;11.00;;
9306;SDS011;4691;47.612;7.610;2023-06-10T01:53:29;19.92;;;10.38;;
9306;SDS011;4691;47.612;7.610;2023-06-10T01:55:55;15.50;;;10.52;;
9306;SDS011;4691;47.612;7.610;2023-06-10T01:58:20;14.40;;;10.05;;
9306;SDS011;4691;47.612;7.610;2023-06-10T02:00:46;16.20;;;10.65;;
9306;SDS011;4691;47.612;7.610;2023-06-10T02:03:11;15.25;;;10.82;;
9306;SDS011;4691;47.612;7.610;2023-06-10T02:05:37;18.08;;;10.93;;
9306;SDS011;4691;47.612;7.610;2023-06-10T02:08:02;13.80;;;10.38;;
9306;SDS011;4691;47.612;7.610;2023-06-10T02:10:28;15.52;;;11.25;;
9306;SDS011;4691;47.612;7.610;2023-06-10T02:12:54;14.55;;;10.10;;
9306;SDS011;4691;47.612;7.610;2023-06-10T02:15:20;18.05;;;11.30;;
9306;SDS011;4691;47.612;7.610;2023-06-10T02:19:34;16.33;;;10.75;;
9306;SDS011;4691;47.612;7.610;2023-06-10T02:22:01;14.13;;;10.50;;
9306;SDS011;4691;47.612;7.610;2023-06-10T02:24:27;14.63;;;10.60;;
9306;SDS011;4691;47.612;7.610;2023-06-10T02:26:52;17.48;;;11.05;;
9306;SDS011;4691;47.612;7.610;2023-06-10T02:29:17;13.85;;;10.43;;
9306;SDS011;4691;47.612;7.610;2023-06-10T02:31:43;16.35;;;10.90;;
9306;SDS011;4691;47.612;7.610;2023-06-10T02:34:08;15.98;;;11.10;;
9306;SDS011;4691;47.612;7.610;2023-06-10T02:36:33;16.60;;;11.15;;
9306;SDS011;4691;47.612;7.610;2023-06-10T02:39:00;16.45;;;11.10;;
9306;SDS011;4691;47.612;7.610;2023-06-10T02:41:26;21.50;;;11.07;;
9306;SDS011;4691;47.612;7.610;2023-06-10T02:43:51;17.50;;;10.25;;
9306;SDS011;4691;47.612;7.610;2023-06-10T02:46:17;17.50;;;10.35;;
9306;SDS011;4691;47.612;7.610;2023-06-10T02:48:42;14.45;;;10.13;;
9306;SDS011;4691;47.612;7.610;2023-06-10T02:51:11;21.67;;;11.32;;
9306;SDS011;4691;47.612;7.610;2023-06-10T02:53:37;15.05;;;10.30;;
9306;SDS011;4691;47.612;7.610;2023-06-10T02:56:02;16.27;;;10.95;;
9306;SDS011;4691;47.612;7.610;2023-06-10T02:58:28;17.15;;;11.35;;
9306;SDS011;4691;47.612;7.610;2023-06-10T03:00:53;14.77;;;10.60;;
9306;SDS011;4691;47.612;7.610;2023-06-10T03:03:18;21.05;;;11.70;;
9306;SDS011;4691;47.612;7.610;2023-06-10T03:05:45;17.30;;;10.90;;
9306;SDS011;4691;47.612;7.610;2023-06-10T03:08:10;22.48;;;12.00;;
9306;SDS011;4691;47.612;7.610;2023-06-10T03:10:35;25.23;;;11.55;;
9306;SDS011;4691;47.612;7.610;2023-06-10T03:13:01;19.35;;;12.05;;
9306;SDS011;4691;47.612;7.610;2023-06-10T03:15:26;16.83;;;11.25;;
9306;SDS011;4691;47.612;7.610;2023-06-10T03:17:53;21.40;;;12.20;;
9306;SDS011;4691;47.612;7.610;2023-06-10T03:20:19;16.80;;;11.02;;
9306;SDS011;4691;47.612;7.610;2023-06-10T03:22:46;16.80;;;11.52;;
9306;SDS011;4691;47.612;7.610;2023-06-10T03:25:11;20.48;;;11.02;;
9306;SDS011;4691;47.612;7.610;2023-06-10T03:27:39;17.55;;;10.30;;
9306;SDS011;4691;47.612;7.610;2023-06-10T03:30:05;14.85;;;10.35;;
9306;SDS011;4691;47.612;7.610;2023-06-10T03:32:31;17.58;;;11.10;;
9306;SDS011;4691;47.612;7.610;2023-06-10T03:34:56;14.50;;;10.30;;
9306;SDS011;4691;47.612;7.610;2023-06-10T03:37:21;17.95;;;10.80;;
9306;SDS011;4691;47.612;7.610;2023-06-10T03:39:47;17.23;;;10.40;;
9306;SDS011;4691;47.612;7.610;2023-06-10T03:42:12;14.82;;;10.30;;
9306;SDS011;4691;47.612;7.610;2023-06-10T03:44:37;14.35;;;10.48;;
9306;SDS011;4691;47.612;7.610;2023-06-10T03:47:03;14.80;;;10.45;;
9306;SDS011;4691;47.612;7.610;2023-06-10T03:49:28;14.55;;;10.60;;
9306;SDS011;4691;47.612;7.610;2023-06-10T03:51:54;16.92;;;11.40;;
9306;SDS011;4691;47.612;7.610;2023-06-10T03:54:20;17.92;;;11.43;;
9306;SDS011;4691;47.612;7.610;2023-06-10T03:56:45;18.88;;;10.70;;
9306;SDS011;4691;47.612;7.610;2023-06-10T03:59:13;15.93;;;10.20;;
9306;SDS011;4691;47.612;7.610;2023-06-10T04:01:38;12.75;;;9.43;;
9306;SDS011;4691;47.612;7.610;2023-06-10T04:04:06;15.30;;;9.95;;
9306;SDS011;4691;47.612;7.610;2023-06-10T04:06:31;15.57;;;10.48;;
9306;SDS011;4691;47.612;7.610;2023-06-10T04:08:56;14.52;;;9.45;;
9306;SDS011;4691;47.612;7.610;2023-06-10T04:11:23;13.52;;;9.38;;
9306;SDS011;4691;47.612;7.610;2023-06-10T04:13:51;13.85;;;9.63;;
9306;SDS011;4691;47.612;7.610;2023-06-10T04:16:16;15.88;;;9.93;;
9306;SDS011;4691;47.612;7.610;2023-06-10T04:18:42;13.75;;;9.40;;
9306;SDS011;4691;47.612;7.610;2023-06-10T04:21:07;14.38;;;10.25;;
9306;SDS011;4691;47.612;7.610;2023-06-10T04:23:34;15.88;;;10.90;;
9306;SDS011;4691;47.612;7.610;2023-06-10T04:26:00;17.48;;;10.32;;
9306;SDS011;4691;47.612;7.610;2023-06-10T04:28:25;17.17;;;10.60;;
9306;SDS011;4691;47.612;7.610;2023-06-10T04:30:51;15.80;;;10.25;;
9306;SDS011;4691;47.612;7.610;2023-06-10T04:33:17;13.55;;;9.35;;
9306;SDS011;4691;47.612;7.610;2023-06-10T04:35:42;14.20;;;9.98;;
9306;SDS011;4691;47.612;7.610;2023-06-10T04:38:07;16.63;;;10.43;;
9306;SDS011;4691;47.612;7.610;2023-06-10T04:40:33;15.57;;;10.18;;
9306;SDS011;4691;47.612;7.610;2023-06-10T04:42:58;17.67;;;9.80;;
9306;SDS011;4691;47.612;7.610;2023-06-10T04:45:23;16.67;;;9.88;;
9306;SDS011;4691;47.612;7.610;2023-06-10T04:47:49;17.20;;;10.88;;
9306;SDS011;4691;47.612;7.610;2023-06-10T04:50:14;16.05;;;10.05;;
9306;SDS011;4691;47.612;7.610;2023-06-10T04:52:40;14.93;;;10.48;;
9306;SDS011;4691;47.612;7.610;2023-06-10T04:55:06;18.63;;;10.55;;
9306;SDS011;4691;47.612;7.610;2023-06-10T04:57:32;15.27;;;10.15;;
9306;SDS011;4691;47.612;7.610;2023-06-10T04:59:57;17.02;;;10.35;;
9306;SDS011;4691;47.612;7.610;2023-06-10T05:02:23;13.38;;;10.00;;
9306;SDS011;4691;47.612;7.610;2023-06-10T05:04:48;18.10;;;9.90;;
9306;SDS011;4691;47.612;7.610;2023-06-10T05:07:13;12.43;;;9.80;;
9306;SDS011;4691;47.612;7.610;2023-06-10T05:09:39;19.17;;;10.50;;
9306;SDS011;4691;47.612;7.610;2023-06-10T05:12:04;16.88;;;10.88;;
9306;SDS011;4691;47.612;7.610;2023-06-10T05:14:30;14.30;;;10.45;;
9306;SDS011;4691;47.612;7.610;2023-06-10T05:16:56;15.10;;;10.85;;
9306;SDS011;4691;47.612;7.610;2023-06-10T05:19:22;17.52;;;10.32;;
9306;SDS011;4691;47.612;7.610;2023-06-10T05:21:47;16.02;;;10.65;;
9306;SDS011;4691;47.612;7.610;2023-06-10T05:24:13;12.80;;;10.68;;
9306;SDS011;4691;47.612;7.610;2023-06-10T05:26:38;14.10;;;10.98;;
9306;SDS011;4691;47.612;7.610;2023-06-10T05:29:04;15.02;;;10.80;;
9306;SDS011;4691;47.612;7.610;2023-06-10T05:31:30;18.25;;;11.07;;
9306;SDS011;4691;47.612;7.610;2023-06-10T05:33:55;16.00;;;10.73;;
9306;SDS011;4691;47.612;7.610;2023-06-10T05:36:21;14.80;;;10.88;;
9306;SDS011;4691;47.612;7.610;2023-06-10T05:38:46;18.88;;;12.05;;
9306;SDS011;4691;47.612;7.610;2023-06-10T05:41:12;15.75;;;11.10;;
9306;SDS011;4691;47.612;7.610;2023-06-10T05:43:37;17.58;;;11.23;;
9306;SDS011;4691;47.612;7.610;2023-06-10T05:46:02;15.52;;;12.10;;
9306;SDS011;4691;47.612;7.610;2023-06-10T05:48:28;18.55;;;11.70;;
9306;SDS011;4691;47.612;7.610;2023-06-10T05:50:53;16.27;;;11.48;;
9306;SDS011;4691;47.612;7.610;2023-06-10T05:53:18;16.92;;;12.43;;
9306;SDS011;4691;47.612;7.610;2023-06-10T05:55:44;19.77;;;11.80;;
9306;SDS011;4691;47.612;7.610;2023-06-10T05:58:10;18.15;;;12.20;;
9306;SDS011;4691;47.612;7.610;2023-06-10T06:00:37;15.90;;;11.00;;
9306;SDS011;4691;47.612;7.610;2023-06-10T06:03:03;17.10;;;11.30;;
9306;SDS011;4691;47.612;7.610;2023-06-10T06:05:30;18.85;;;11.57;;
9306;SDS011;4691;47.612;7.610;2023-06-10T06:08:00;15.00;;;10.95;;
9306;SDS011;4691;47.612;7.610;2023-06-10T06:10:28;14.27;;;10.15;;
9306;SDS011;4691;47.612;7.610;2023-06-10T06:12:54;14.50;;;11.05;;
9306;SDS011;4691;47.612;7.610;2023-06-10T06:15:19;17.50;;;12.10;;
9306;SDS011;4691;47.612;7.610;2023-06-10T06:17:44;18.65;;;11.95;;
9306;SDS011;4691;47.612;7.610;2023-06-10T06:20:10;17.05;;;12.93;;
9306;SDS011;4691;47.612;7.610;2023-06-10T06:22:35;20.17;;;11.60;;
9306;SDS011;4691;47.612;7.610;2023-06-10T06:25:01;16.23;;;11.93;;
9306;SDS011;4691;47.612;7.610;2023-06-10T06:27:26;17.92;;;11.73;;
9306;SDS011;4691;47.612;7.610;2023-06-10T06:29:51;19.55;;;11.48;;
9306;SDS011;4691;47.612;7.610;2023-06-10T06:32:17;18.83;;;11.50;;
9306;SDS011;4691;47.612;7.610;2023-06-10T06:34:42;19.27;;;11.90;;
9306;SDS011;4691;47.612;7.610;2023-06-10T06:37:08;17.60;;;11.77;;
9306;SDS011;4691;47.612;7.610;2023-06-10T06:39:33;15.50;;;11.20;;
9306;SDS011;4691;47.612;7.610;2023-06-10T06:42:01;15.80;;;12.18;;
9306;SDS011;4691;47.612;7.610;2023-06-10T06:44:27;15.38;;;11.55;;
9306;SDS011;4691;47.612;7.610;2023-06-10T06:46:53;18.38;;;12.50;;
9306;SDS011;4691;47.612;7.610;2023-06-10T06:49:18;14.85;;;11.25;;
9306;SDS011;4691;47.612;7.610;2023-06-10T06:51:43;18.17;;;12.73;;
9306;SDS011;4691;47.612;7.610;2023-06-10T06:54:08;16.50;;;11.82;;
9306;SDS011;4691;47.612;7.610;2023-06-10T06:56:34;20.20;;;12.35;;
9306;SDS011;4691;47.612;7.610;2023-06-10T06:59:00;17.90;;;11.95;;
9306;SDS011;4691;47.612;7.610;2023-06-10T07:01:25;17.27;;;11.75;;
9306;SDS011;4691;47.612;7.610;2023-06-10T07:03:50;15.68;;;11.07;;
9306;SDS011;4691;47.612;7.610;2023-06-10T07:06:16;17.30;;;12.60;;
9306;SDS011;4691;47.612;7.610;2023-06-10T07:08:41;22.15;;;12.80;;
9306;SDS011;4691;47.612;7.610;2023-06-10T07:11:06;17.00;;;12.43;;
9306;SDS011;4691;47.612;7.610;2023-06-10T07:13:31;17.70;;;12.73;;
9306;SDS011;4691;47.612;7.610;2023-06-10T07:15:57;18.48;;;11.50;;
9306;SDS011;4691;47.612;7.610;2023-06-10T07:18:22;19.50;;;11.40;;
9306;SDS011;4691;47.612;7.610;2023-06-10T07:20:47;19.48;;;13.48;;
9306;SDS011;4691;47.612;7.610;2023-06-10T07:23:13;15.68;;;11.70;;
9306;SDS011;4691;47.612;7.610;2023-06-10T07:25:38;17.63;;;12.32;;
9306;SDS011;4691;47.612;7.610;2023-06-10T07:28:03;19.27;;;12.57;;
9306;SDS011;4691;47.612;7.610;2023-06-10T07:30:29;15.88;;;12.23;;
9306;SDS011;4691;47.612;7.610;2023-06-10T07:32:54;17.88;;;12.05;;
9306;SDS011;4691;47.612;7.610;2023-06-10T07:35:20;21.13;;;12.85;;
9306;SDS011;4691;47.612;7.610;2023-06-10T07:37:46;17.27;;;12.15;;
9306;SDS011;4691;47.612;7.610;2023-06-10T07:40:11;17.58;;;12.80;;
9306;SDS011;4691;47.612;7.610;2023-06-10T07:42:36;16.83;;;12.07;;
9306;SDS011;4691;47.612;7.610;2023-06-10T07:45:02;15.93;;;11.98;;
9306;SDS011;4691;47.612;7.610;2023-06-10T07:47:29;18.05;;;11.98;;
9306;SDS011;4691;47.612;7.610;2023-06-10T07:49:55;16.65;;;12.45;;
9306;SDS011;4691;47.612;7.610;2023-06-10T07:52:20;20.15;;;12.70;;
9306;SDS011;4691;47.612;7.610;2023-06-10T07:54:45;19.88;;;12.20;;
9306;SDS011;4691;47.612;7.610;2023-06-10T07:57:11;15.40;;;11.93;;
9306;SDS011;4691;47.612;7.610;2023-06-10T07:59:36;16.40;;;11.90;;
9306;SDS011;4691;47.612;7.610;2023-06-10T08:02:02;15.07;;;11.65;;
9306;SDS011;4691;47.612;7.610;2023-06-10T08:04:28;18.23;;;12.00;;
9306;SDS011;4691;47.612;7.610;2023-06-10T08:06:55;21.15;;;11.70;;
9306;SDS011;4691;47.612;7.610;2023-06-10T08:09:21;18.98;;;12.05;;
9306;SDS011;4691;47.612;7.610;2023-06-10T08:11:48;18.50;;;12.45;;
9306;SDS011;4691;47.612;7.610;2023-06-10T08:14:13;16.73;;;11.88;;
9306;SDS011;4691;47.612;7.610;2023-06-10T08:16:39;18.75;;;11.80;;
9306;SDS011;4691;47.612;7.610;2023-06-10T08:19:04;19.85;;;12.25;;
9306;SDS011;4691;47.612;7.610;2023-06-10T08:21:29;17.65;;;12.95;;
9306;SDS011;4691;47.612;7.610;2023-06-10T08:23:55;17.63;;;12.80;;
9306;SDS011;4691;47.612;7.610;2023-06-10T08:26:20;17.55;;;13.10;;
9306;SDS011;4691;47.612;7.610;2023-06-10T08:28:46;21.13;;;12.98;;
9306;SDS011;4691;47.612;7.610;2023-06-10T08:31:11;19.13;;;12.90;;
9306;SDS011;4691;47.612;7.610;2023-06-10T08:33:36;17.33;;;13.10;;
9306;SDS011;4691;47.612;7.610;2023-06-10T08:36:02;21.85;;;13.95;;
9306;SDS011;4691;47.612;7.610;2023-06-10T08:38:27;19.10;;;13.73;;
9306;SDS011;4691;47.612;7.610;2023-06-10T08:40:53;16.00;;;12.60;;
9306;SDS011;4691;47.612;7.610;2023-06-10T08:43:42;18.63;;;13.88;;
9306;SDS011;4691;47.612;7.610;2023-06-10T08:46:10;17.80;;;12.80;;
9306;SDS011;4691;47.612;7.610;2023-06-10T08:48:39;18.02;;;13.63;;
9306;SDS011;4691;47.612;7.610;2023-06-10T08:51:07;15.55;;;12.70;;
9306;SDS011;4691;47.612;7.610;2023-06-10T08:53:36;24.20;;;12.82;;
9306;SDS011;4691;47.612;7.610;2023-06-10T08:56:03;17.40;;;13.00;;
9306;SDS011;4691;47.612;7.610;2023-06-10T08:58:30;15.98;;;12.75;;
9306;SDS011;4691;47.612;7.610;2023-06-10T09:00:58;19.60;;;13.55;;
9306;SDS011;4691;47.612;7.610;2023-06-10T09:03:24;17.08;;;13.55;;
9306;SDS011;4691;47.612;7.610;2023-06-10T09:05:50;19.58;;;13.60;;
9306;SDS011;4691;47.612;7.610;2023-06-10T09:08:16;22.90;;;13.85;;
9306;SDS011;4691;47.612;7.610;2023-06-10T09:10:41;17.48;;;14.07;;
9306;SDS011;4691;47.612;7.610;2023-06-10T09:13:07;15.52;;;13.27;;
9306;SDS011;4691;47.612;7.610;2023-06-10T09:15:32;19.77;;;14.23;;
9306;SDS011;4691;47.612;7.610;2023-06-10T09:17:58;20.60;;;14.40;;
9306;SDS011;4691;47.612;7.610;2023-06-10T09:20:24;21.48;;;14.10;;
9306;SDS011;4691;47.612;7.610;2023-06-10T09:22:50;16.23;;;13.95;;
9306;SDS011;4691;47.612;7.610;2023-06-10T09:25:15;17.92;;;13.93;;
9306;SDS011;4691;47.612;7.610;2023-06-10T09:27:48;17.48;;;13.77;;
9306;SDS011;4691;47.612;7.610;2023-06-10T09:30:34;19.05;;;13.95;;
9306;SDS011;4691;47.612;7.610;2023-06-10T09:33:00;18.85;;;14.43;;
9306;SDS011;4691;47.612;7.610;2023-06-10T09:35:28;19.83;;;13.82;;
9306;SDS011;4691;47.612;7.610;2023-06-10T09:37:59;19.33;;;13.98;;
9306;SDS011;4691;47.612;7.610;2023-06-10T09:40:25;25.42;;;15.35;;
9306;SDS011;4691;47.612;7.610;2023-06-10T09:42:59;17.00;;;13.82;;
9306;SDS011;4691;47.612;7.610;2023-06-10T09:45:31;20.27;;;14.50;;
9306;SDS011;4691;47.612;7.610;2023-06-10T09:47:57;17.63;;;14.02;;
9306;SDS011;4691;47.612;7.610;2023-06-10T09:50:23;18.83;;;13.80;;
9306;SDS011;4691;47.612;7.610;2023-06-10T09:52:49;16.23;;;12.88;;
9306;SDS011;4691;47.612;7.610;2023-06-10T09:55:15;18.45;;;13.77;;
9306;SDS011;4691;47.612;7.610;2023-06-10T09:57:41;18.95;;;13.27;;
9306;SDS011;4691;47.612;7.610;2023-06-10T10:00:09;15.80;;;13.60;;
9306;SDS011;4691;47.612;7.610;2023-06-10T10:02:45;19.73;;;13.30;;
9306;SDS011;4691;47.612;7.610;2023-06-10T10:05:19;15.02;;;13.13;;
9306;SDS011;4691;47.612;7.610;2023-06-10T10:07:46;15.55;;;12.55;;
9306;SDS011;4691;47.612;7.610;2023-06-10T10:10:12;15.48;;;12.82;;
9306;SDS011;4691;47.612;7.610;2023-06-10T10:12:40;16.42;;;13.93;;
9306;SDS011;4691;47.612;7.610;2023-06-10T10:15:06;16.55;;;13.32;;
9306;SDS011;4691;47.612;7.610;2023-06-10T10:17:34;15.35;;;13.75;;
9306;SDS011;4691;47.612;7.610;2023-06-10T10:20:08;15.05;;;13.45;;
9306;SDS011;4691;47.612;7.610;2023-06-10T10:22:38;17.35;;;13.45;;
9306;SDS011;4691;47.612;7.610;2023-06-10T10:25:09;16.23;;;13.07;;
9306;SDS011;4691;47.612;7.610;2023-06-10T10:30:11;15.60;;;13.32;;
9306;SDS011;4691;47.612;7.610;2023-06-10T10:32:47;16.27;;;14.30;;
9306;SDS011;4691;47.612;7.610;2023-06-10T10:35:26;17.00;;;13.38;;
9306;SDS011;4691;47.612;7.610;2023-06-10T10:37:52;21.52;;;14.10;;
9306;SDS011;4691;47.612;7.610;2023-06-10T10:40:18;15.75;;;13.88;;
9306;SDS011;4691;47.612;7.610;2023-06-10T10:42:47;18.08;;;13.77;;
9306;SDS011;4691;47.612;7.610;2023-06-10T10:45:14;16.33;;;13.13;;
9306;SDS011;4691;47.612;7.610;2023-06-10T10:47:39;17.20;;;13.93;;
9306;SDS011;4691;47.612;7.610;2023-06-10T10:50:17;15.50;;;13.77;;
9306;SDS011;4691;47.612;7.610;2023-06-10T10:52:51;14.52;;;12.85;;
9306;SDS011;4691;47.612;7.610;2023-06-10T10:55:17;19.55;;;13.90;;
9306;SDS011;4691;47.612;7.610;2023-06-10T10:57:43;18.40;;;14.10;;
9306;SDS011;4691;47.612;7.610;2023-06-10T11:00:08;19.83;;;15.13;;
9306;SDS011;4691;47.612;7.610;2023-06-10T11:02:35;18.65;;;14.48;;
9306;SDS011;4691;47.612;7.610;2023-06-10T11:05:13;15.18;;;13.57;;
9306;SDS011;4691;47.612;7.610;2023-06-10T11:07:39;17.83;;;14.35;;
9306;SDS011;4691;47.612;7.610;2023-06-10T11:10:09;15.02;;;13.20;;
9306;SDS011;4691;47.612;7.610;2023-06-10T11:15:14;14.73;;;13.23;;
9306;SDS011;4691;47.612;7.610;2023-06-10T11:23:25;16.80;;;13.77;;
9306;SDS011;4691;47.612;7.610;2023-06-10T11:25:50;17.33;;;13.57;;
9306;SDS011;4691;47.612;7.610;2023-06-10T11:28:19;17.17;;;13.48;;
9306;SDS011;4691;47.612;7.610;2023-06-10T11:30:45;14.95;;;13.45;;
9306;SDS011;4691;47.612;7.610;2023-06-10T11:33:17;16.25;;;12.77;;
9306;SDS011;4691;47.612;7.610;2023-06-10T11:35:43;15.57;;;13.40;;
9306;SDS011;4691;47.612;7.610;2023-06-10T11:38:08;17.10;;;13.48;;
9306;SDS011;4691;47.612;7.610;2023-06-10T11:40:34;15.43;;;13.80;;
9306;SDS011;4691;47.612;7.610;2023-06-10T11:43:01;18.10;;;14.15;;
9306;SDS011;4691;47.612;7.610;2023-06-10T11:45:29;18.90;;;13.97;;
9306;SDS011;4691;47.612;7.610;2023-06-10T11:48:00;16.98;;;15.05;;
9306;SDS011;4691;47.612;7.610;2023-06-10T11:50:29;15.80;;;14.02;;
9306;SDS011;4691;47.612;7.610;2023-06-10T11:52:56;16.10;;;14.30;;
9306;SDS011;4691;47.612;7.610;2023-06-10T11:55:23;17.30;;;14.15;;
9306;SDS011;4691;47.612;7.610;2023-06-10T11:57:48;17.60;;;13.85;;
9306;SDS011;4691;47.612;7.610;2023-06-10T12:00:22;16.65;;;14.75;;
9306;SDS011;4691;47.612;7.610;2023-06-10T12:02:54;17.40;;;14.82;;
9306;SDS011;4691;47.612;7.610;2023-06-10T12:05:22;20.45;;;15.63;;
9306;SDS011;4691;47.612;7.610;2023-06-10T12:07:47;30.17;;;15.52;;
9306;SDS011;4691;47.612;7.610;2023-06-10T12:10:13;16.60;;;14.90;;
9306;SDS011;4691;47.612;7.610;2023-06-10T12:12:38;16.58;;;14.90;;
9306;SDS011;4691;47.612;7.610;2023-06-10T12:15:04;18.90;;;15.35;;
9306;SDS011;4691;47.612;7.610;2023-06-10T12:19:56;15.63;;;13.93;;
9306;SDS011;4691;47.612;7.610;2023-06-10T12:22:22;18.17;;;14.20;;
9306;SDS011;4691;47.612;7.610;2023-06-10T12:25:02;17.48;;;15.35;;
9306;SDS011;4691;47.612;7.610;2023-06-10T12:27:29;26.08;;;15.95;;
9306;SDS011;4691;47.612;7.610;2023-06-10T12:29:57;18.45;;;15.82;;
9306;SDS011;4691;47.612;7.610;2023-06-10T12:32:34;18.15;;;15.55;;
9306;SDS011;4691;47.612;7.610;2023-06-10T12:35:04;15.13;;;13.63;;
9306;SDS011;4691;47.612;7.610;2023-06-10T12:37:30;18.50;;;14.05;;
9306;SDS011;4691;47.612;7.610;2023-06-10T12:39:58;25.23;;;14.97;;
9306;SDS011;4691;47.612;7.610;2023-06-10T12:42:26;17.67;;;14.90;;
9306;SDS011;4691;47.612;7.610;2023-06-10T12:44:54;17.65;;;14.65;;
9306;SDS011;4691;47.612;7.610;2023-06-10T12:47:21;15.70;;;13.75;;
9306;SDS011;4691;47.612;7.610;2023-06-10T12:49:58;15.80;;;13.95;;
9306;SDS011;4691;47.612;7.610;2023-06-10T12:52:24;18.92;;;14.05;;
9306;SDS011;4691;47.612;7.610;2023-06-10T12:54:50;17.40;;;14.35;;
9306;SDS011;4691;47.612;7.610;2023-06-10T12:57:15;19.98;;;14.73;;
9306;SDS011;4691;47.612;7.610;2023-06-10T12:59:41;16.30;;;14.00;;
9306;SDS011;4691;47.612;7.610;2023-06-10T13:02:09;18.58;;;14.25;;
9306;SDS011;4691;47.612;7.610;2023-06-10T13:04:35;15.75;;;14.15;;
9306;SDS011;4691;47.612;7.610;2023-06-10T13:07:01;16.27;;;14.23;;
9306;SDS011;4691;47.612;7.610;2023-06-10T13:09:26;17.00;;;14.30;;
9306;SDS011;4691;47.612;7.610;2023-06-10T13:11:51;15.75;;;14.10;;
9306;SDS011;4691;47.612;7.610;2023-06-10T13:14:17;18.70;;;13.85;;
9306;SDS011;4691;47.612;7.610;2023-06-10T13:16:43;18.40;;;14.13;;
9306;SDS011;4691;47.612;7.610;2023-06-10T13:19:09;18.30;;;14.23;;
9306;SDS011;4691;47.612;7.610;2023-06-10T13:21:35;16.35;;;14.23;;
9306;SDS011;4691;47.612;7.610;2023-06-10T13:24:02;17.05;;;14.38;;
9306;SDS011;4691;47.612;7.610;2023-06-10T13:26:27;17.55;;;14.13;;
9306;SDS011;4691;47.612;7.610;2023-06-10T13:28:52;17.63;;;14.20;;
9306;SDS011;4691;47.612;7.610;2023-06-10T13:31:18;16.17;;;13.60;;
9306;SDS011;4691;47.612;7.610;2023-06-10T13:33:44;15.98;;;13.95;;
9306;SDS011;4691;47.612;7.610;2023-06-10T13:36:09;18.92;;;14.18;;
9306;SDS011;4691;47.612;7.610;2023-06-10T13:38:35;20.02;;;14.18;;
9306;SDS011;4691;47.612;7.610;2023-06-10T13:41:00;18.42;;;14.95;;
9306;SDS011;4691;47.612;7.610;2023-06-10T13:43:26;15.93;;;13.75;;
9306;SDS011;4691;47.612;7.610;2023-06-10T13:45:51;16.73;;;14.30;;
9306;SDS011;4691;47.612;7.610;2023-06-10T13:48:17;19.83;;;13.77;;
9306;SDS011;4691;47.612;7.610;2023-06-10T13:50:43;16.70;;;14.13;;
9306;SDS011;4691;47.612;7.610;2023-06-10T13:53:10;15.67;;;14.10;;
9306;SDS011;4691;47.612;7.610;2023-06-10T13:55:36;17.02;;;14.02;;
9306;SDS011;4691;47.612;7.610;2023-06-10T13:58:01;16.13;;;13.93;;
9306;SDS011;4691;47.612;7.610;2023-06-10T14:00:27;15.73;;;14.13;;
9306;SDS011;4691;47.612;7.610;2023-06-10T14:02:53;19.35;;;14.18;;
9306;SDS011;4691;47.612;7.610;2023-06-10T14:05:18;16.90;;;14.13;;
9306;SDS011;4691;47.612;7.610;2023-06-10T14:07:44;16.05;;;14.38;;
9306;SDS011;4691;47.612;7.610;2023-06-10T14:10:09;16.80;;;14.30;;
9306;SDS011;4691;47.612;7.610;2023-06-10T14:12:35;15.98;;;14.32;;
9306;SDS011;4691;47.612;7.610;2023-06-10T14:15:00;15.93;;;14.07;;
9306;SDS011;4691;47.612;7.610;2023-06-10T14:17:26;15.85;;;14.25;;
9306;SDS011;4691;47.612;7.610;2023-06-10T14:19:51;18.10;;;13.75;;
9306;SDS011;4691;47.612;7.610;2023-06-10T14:22:17;16.38;;;14.68;;
9306;SDS011;4691;47.612;7.610;2023-06-10T14:24:42;26.33;;;16.20;;
9306;SDS011;4691;47.612;7.610;2023-06-10T14:27:07;21.70;;;14.70;;
9306;SDS011;4691;47.612;7.610;2023-06-10T14:29:33;21.13;;;16.53;;
9306;SDS011;4691;47.612;7.610;2023-06-10T14:31:59;17.10;;;15.07;;
9306;SDS011;4691;47.612;7.610;2023-06-10T14:34:24;18.27;;;15.25;;
9306;SDS011;4691;47.612;7.610;2023-06-10T14:36:53;17.13;;;14.90;;
9306;SDS011;4691;47.612;7.610;2023-06-10T14:39:19;16.75;;;15.00;;
9306;SDS011;4691;47.612;7.610;2023-06-10T14:41:45;16.77;;;14.98;;
9306;SDS011;4691;47.612;7.610;2023-06-10T14:44:10;17.33;;;14.90;;
9306;SDS011;4691;47.612;7.610;2023-06-10T14:46:35;15.82;;;14.15;;
9306;SDS011;4691;47.612;7.610;2023-06-10T14:49:01;21.40;;;15.53;;
9306;SDS011;4691;47.612;7.610;2023-06-10T14:51:27;17.80;;;15.43;;
9306;SDS011;4691;47.612;7.610;2023-06-10T14:53:53;20.05;;;17.95;;
9306;SDS011;4691;47.612;7.610;2023-06-10T14:56:18;18.63;;;16.17;;
9306;SDS011;4691;47.612;7.610;2023-06-10T14:58:43;20.80;;;16.10;;
9306;SDS011;4691;47.612;7.610;2023-06-10T15:01:09;17.75;;;15.88;;
9306;SDS011;4691;47.612;7.610;2023-06-10T15:03:34;18.08;;;16.23;;